Time,TemperatureF,DewpointF,PressureIn,WindDirection,WindDirectionDegrees,WindSpeedMPH,WindSpeedGustMPH,Humidity,HourlyPrecipIn,Conditions,Clouds,dailyrainin,SoftwareType,DateUTC
2013-03-31 00:00:00,32.7,24.0,30.03,SSW,192,2.0,2.0,70,0.00,,CLR,0.00,VWS V14.01,2013-03-31 04:00:00,
2013-03-31 00:05:00,32.8,24.1,30.03,SSW,192,0.0,2.0,70,0.00,,CLR,0.00,VWS V14.01,2013-03-31 04:05:00,
2013-03-31 00:10:00,32.9,24.2,30.02,SSW,192,0.0,0.0,70,0.00,,CLR,0.00,VWS V14.01,2013-03-31 04:10:00,
2013-03-31 00:15:00,33.1,24.0,30.02,SSW,192,0.0,0.0,69,0.00,,CLR,0.00,VWS V14.01,2013-03-31 04:15:00,
2013-03-31 00:20:00,33.5,24.8,30.02,SSW,192,0.0,1.0,70,0.00,,CLR,0.00,VWS V14.01,2013-03-31 04:20:00,
2013-03-31 00:25:00,33.4,24.7,30.02,SSW,192,0.0,1.0,70,0.00,,CLR,0.00,VWS V14.01,2013-03-31 04:25:00,
2013-03-31 00:30:00,33.4,24.7,30.02,SSW,192,0.0,1.0,70,0.00,,CLR,0.00,VWS V14.01,2013-03-31 04:30:00,
2013-03-31 00:35:00,33.3,24.2,30.02,SSW,192,0.0,1.0,69,0.00,,CLR,0.00,VWS V14.01,2013-03-31 04:35:00,
2013-03-31 00:40:00,33.5,24.4,30.01,SSW,192,0.0,1.0,69,0.00,,CLR,0.00,VWS V14.01,2013-03-31 04:40:00,
2013-03-31 00:45:00,33.3,24.6,30.01,SSW,192,0.0,1.0,70,0.00,,CLR,0.00,VWS V14.01,2013-03-31 04:45:00,
2013-03-31 00:50:00,32.8,24.8,30.01,SSW,192,0.0,2.0,72,0.00,,CLR,0.00,VWS V14.01,2013-03-31 04:50:00,
2013-03-31 00:55:00,32.6,24.9,30.01,SSW,192,0.0,2.0,73,0.00,,CLR,0.00,VWS V14.01,2013-03-31 04:55:00,
2013-03-31 01:00:00,32.7,25.0,30.01,WNW,290,0.0,2.0,73,0.00,,CLR,0.00,VWS V14.01,2013-03-31 05:00:00,
2013-03-31 01:05:00,32.8,24.8,30.01,SSW,194,0.0,2.0,72,0.00,,CLR,0.00,VWS V14.01,2013-03-31 05:05:00,
2013-03-31 01:10:00,32.7,24.7,30.01,SSW,194,0.0,1.0,72,0.00,,CLR,0.00,VWS V14.01,2013-03-31 05:10:00,
2013-03-31 01:15:00,32.8,24.8,30.01,SSW,194,0.0,1.0,72,0.00,,CLR,0.00,VWS V14.01,2013-03-31 05:15:00,
2013-03-31 01:20:00,32.6,24.6,30.01,SSW,194,0.0,0.0,72,0.00,,CLR,0.00,VWS V14.01,2013-03-31 05:20:00,
2013-03-31 01:25:00,32.5,24.5,30.00,SSW,194,1.0,1.0,72,0.00,,CLR,0.00,VWS V14.01,2013-03-31 05:25:00,
2013-03-31 01:30:00,32.6,24.9,30.00,SW,227,2.0,2.0,73,0.00,,CLR,0.00,VWS V14.01,2013-03-31 05:30:00,
2013-03-31 01:35:00,32.3,25.0,30.00,SW,235,2.0,2.0,74,0.00,,CLR,0.00,VWS V14.01,2013-03-31 05:35:00,
2013-03-31 01:40:00,32.1,24.4,29.99,SW,235,1.0,2.0,73,0.00,,CLR,0.00,VWS V14.01,2013-03-31 05:40:00,
2013-03-31 01:45:00,32.5,24.8,29.99,SW,235,0.0,2.0,73,0.00,,CLR,0.00,VWS V14.01,2013-03-31 05:45:00,
2013-03-31 01:50:00,32.5,24.8,29.99,SW,235,0.0,0.0,73,0.00,,CLR,0.00,VWS V14.01,2013-03-31 05:50:00,
2013-03-31 01:55:00,32.4,25.0,29.99,SW,234,0.0,0.0,74,0.00,,CLR,0.00,VWS V14.01,2013-03-31 05:55:00,
2013-03-31 02:00:00,32.3,25.0,29.99,SW,235,1.0,1.0,74,0.00,,CLR,0.00,VWS V14.01,2013-03-31 06:00:00,
2013-03-31 02:06:00,32.3,24.6,29.99,SW,235,0.0,1.0,73,0.00,,CLR,0.00,VWS V14.01,2013-03-31 06:06:00,
2013-03-31 02:10:00,32.7,24.7,29.99,SW,235,0.0,1.0,72,0.00,,,0.00,VWS V14.01,2013-03-31 06:10:00,
2013-03-31 02:11:00,32.5,24.5,29.99,SW,235,0.0,1.0,72,0.00,,CLR,0.00,VWS V14.01,2013-03-31 06:11:00,
2013-03-31 02:16:00,32.7,24.7,29.99,SW,235,0.0,1.0,72,0.00,,CLR,0.00,VWS V14.01,2013-03-31 06:16:00,
2013-03-31 02:20:00,33.6,24.5,29.98,SW,234,0.0,1.0,69,0.00,,,0.00,VWS V14.01,2013-03-31 06:20:00,
2013-03-31 02:21:00,33.0,24.3,29.99,SW,234,0.0,1.0,70,0.00,,CLR,0.00,VWS V14.01,2013-03-31 06:21:00,
2013-03-31 02:26:00,33.5,24.4,29.98,SW,235,0.0,1.0,69,0.00,,CLR,0.00,VWS V14.01,2013-03-31 06:26:00,
2013-03-31 02:30:00,33.8,24.0,29.96,SW,235,0.0,1.0,67,0.00,,,0.00,VWS V14.01,2013-03-31 06:30:00,
2013-03-31 02:31:00,33.7,24.3,29.98,SW,234,0.0,1.0,68,0.00,,CLR,0.00,VWS V14.01,2013-03-31 06:31:00,
2013-03-31 02:36:00,33.8,24.0,29.98,SW,235,0.0,1.0,67,0.00,,CLR,0.00,VWS V14.01,2013-03-31 06:36:00,
2013-03-31 02:40:00,33.7,24.3,29.96,SW,234,0.0,1.0,68,0.00,,,0.00,VWS V14.01,2013-03-31 06:40:00,
2013-03-31 02:41:00,33.9,23.8,29.96,SW,235,0.0,0.0,66,0.00,,CLR,0.00,VWS V14.01,2013-03-31 06:41:00,
2013-03-31 02:46:00,33.7,23.9,29.96,SW,234,0.0,1.0,67,0.00,,CLR,0.00,VWS V14.01,2013-03-31 06:46:00,
2013-03-31 02:50:00,33.7,23.9,29.95,SW,235,0.0,1.0,67,0.00,,,0.00,VWS V14.01,2013-03-31 06:50:00,
2013-03-31 02:51:00,33.5,24.1,29.96,SW,235,0.0,1.0,68,0.00,,CLR,0.00,VWS V14.01,2013-03-31 06:51:00,
2013-03-31 02:56:00,33.8,24.0,29.95,SW,235,0.0,1.0,67,0.00,,CLR,0.00,VWS V14.01,2013-03-31 06:56:00,
2013-03-31 03:00:00,33.5,23.7,29.94,SW,234,0.0,1.0,67,0.00,,,0.00,VWS V14.01,2013-03-31 07:00:00,
2013-03-31 03:01:00,33.5,23.7,29.95,SW,235,0.0,0.0,67,0.00,,CLR,0.00,VWS V14.01,2013-03-31 07:01:00,
2013-03-31 03:06:00,33.5,23.7,29.95,SW,235,0.0,1.0,67,0.00,,CLR,0.00,VWS V14.01,2013-03-31 07:06:00,
2013-03-31 03:10:00,34.2,23.3,29.94,SW,235,0.0,1.0,64,0.00,,,0.00,VWS V14.01,2013-03-31 07:10:00,
2013-03-31 03:11:00,33.6,23.1,29.94,SW,235,0.0,1.0,65,0.00,,CLR,0.00,VWS V14.01,2013-03-31 07:11:00,
2013-03-31 03:16:00,34.2,23.3,29.94,SW,235,0.0,1.0,64,0.00,,CLR,0.00,VWS V14.01,2013-03-31 07:16:00,
2013-03-31 03:20:00,34.7,23.4,29.93,SW,235,0.0,1.0,63,0.00,,,0.00,VWS V14.01,2013-03-31 07:20:00,
2013-03-31 03:21:00,34.5,23.6,29.93,SW,234,0.0,0.0,64,0.00,,CLR,0.00,VWS V14.01,2013-03-31 07:21:00,
2013-03-31 03:26:00,34.7,23.4,29.93,SW,234,0.0,1.0,63,0.00,,CLR,0.00,VWS V14.01,2013-03-31 07:26:00,
2013-03-31 03:30:00,34.4,23.1,29.92,SW,235,1.0,1.0,63,0.00,,,0.00,VWS V14.01,2013-03-31 07:30:00,
2013-03-31 03:32:00,34.6,23.3,29.93,SW,234,0.0,1.0,63,0.00,,CLR,0.00,VWS V14.01,2013-03-31 07:32:00,
2013-03-31 03:36:00,34.4,23.1,29.92,SW,235,0.0,1.0,63,0.00,,CLR,0.00,VWS V14.01,2013-03-31 07:36:00,
2013-03-31 03:40:00,34.1,23.6,29.92,SW,235,0.0,1.0,65,0.00,,,0.00,VWS V14.01,2013-03-31 07:40:00,
2013-03-31 03:42:00,34.1,23.2,29.92,SW,235,0.0,1.0,64,0.00,,CLR,0.00,VWS V14.01,2013-03-31 07:42:00,
2013-03-31 03:46:00,34.1,23.6,29.92,SW,235,0.0,1.0,65,0.00,,CLR,0.00,VWS V14.01,2013-03-31 07:46:00,
2013-03-31 03:50:00,34.4,23.1,29.92,SW,235,0.0,1.0,63,0.00,,,0.00,VWS V14.01,2013-03-31 07:50:00,
2013-03-31 03:52:00,34.2,23.3,29.92,SW,234,0.0,1.0,64,0.00,,CLR,0.00,VWS V14.01,2013-03-31 07:52:00,
2013-03-31 03:57:00,34.4,23.1,29.92,SW,235,0.0,1.0,63,0.00,,CLR,0.00,VWS V14.01,2013-03-31 07:57:00,
2013-03-31 04:00:00,34.2,23.7,29.91,SW,235,1.0,1.0,65,0.00,,,0.00,VWS V14.01,2013-03-31 08:00:00,
2013-03-31 04:02:00,34.7,23.4,29.92,SW,235,0.0,1.0,63,0.00,,CLR,0.00,VWS V14.01,2013-03-31 08:02:00,
2013-03-31 04:07:00,34.2,23.7,29.91,SW,235,0.0,1.0,65,0.00,,CLR,0.00,VWS V14.01,2013-03-31 08:07:00,
2013-03-31 04:10:00,32.8,24.5,29.91,SW,234,0.0,1.0,71,0.00,,,0.00,VWS V14.01,2013-03-31 08:10:00,
2013-03-31 04:12:00,33.5,24.1,29.91,SW,235,0.0,1.0,68,0.00,,CLR,0.00,VWS V14.01,2013-03-31 08:12:00,
2013-03-31 04:17:00,32.9,24.5,29.91,SW,235,0.0,1.0,71,0.00,,CLR,0.00,VWS V14.01,2013-03-31 08:17:00,
2013-03-31 04:20:00,32.8,24.5,29.90,SW,235,1.0,1.0,71,0.00,,,0.00,VWS V14.01,2013-03-31 08:20:00,
2013-03-31 04:22:00,32.7,24.4,29.90,SW,235,0.0,1.0,71,0.00,,CLR,0.00,VWS V14.01,2013-03-31 08:22:00,
2013-03-31 04:27:00,32.8,24.5,29.90,SW,235,1.0,1.0,71,0.00,,CLR,0.00,VWS V14.01,2013-03-31 08:27:00,
2013-03-31 04:30:00,33.1,24.7,29.90,SW,234,0.0,1.0,71,0.00,,,0.00,VWS V14.01,2013-03-31 08:30:00,
2013-03-31 04:32:00,33.0,24.6,29.90,SW,234,0.0,1.0,71,0.00,,CLR,0.00,VWS V14.01,2013-03-31 08:32:00,
2013-03-31 04:37:00,33.1,24.7,29.90,SW,234,0.0,0.0,71,0.00,,CLR,0.00,VWS V14.01,2013-03-31 08:37:00,
2013-03-31 04:40:00,33.2,24.1,29.90,SW,235,0.0,2.0,69,0.00,,,0.00,VWS V14.01,2013-03-31 08:40:00,
2013-03-31 04:42:00,33.2,24.5,29.90,SW,235,0.0,1.0,70,0.00,,CLR,0.00,VWS V14.01,2013-03-31 08:42:00,
2013-03-31 04:47:00,33.2,24.1,29.90,SW,235,0.0,0.0,69,0.00,,CLR,0.00,VWS V14.01,2013-03-31 08:47:00,
2013-03-31 04:50:00,32.7,24.4,29.90,SW,234,0.0,1.0,71,0.00,,,0.00,VWS V14.01,2013-03-31 08:50:00,
2013-03-31 04:52:00,33.1,24.0,29.90,SW,234,0.0,1.0,69,0.00,,CLR,0.00,VWS V14.01,2013-03-31 08:52:00,
2013-03-31 04:57:00,32.7,24.4,29.90,SW,235,0.0,0.0,71,0.00,,CLR,0.00,VWS V14.01,2013-03-31 08:57:00,
2013-03-31 05:00:00,33.2,24.5,29.89,SW,234,1.0,2.0,70,0.00,,,0.00,VWS V14.01,2013-03-31 09:00:00,
2013-03-31 05:02:00,32.7,24.7,29.90,SW,235,0.0,1.0,72,0.00,,CLR,0.00,VWS V14.01,2013-03-31 09:02:00,
2013-03-31 05:07:00,33.2,24.5,29.89,SW,235,2.0,2.0,70,0.00,,CLR,0.00,VWS V14.01,2013-03-31 09:07:00,
2013-03-31 05:10:00,34.1,24.3,29.89,SW,234,0.0,2.0,67,0.00,,,0.00,VWS V14.01,2013-03-31 09:10:00,
2013-03-31 05:12:00,33.7,24.6,29.89,SW,234,0.0,2.0,69,0.00,,CLR,0.00,VWS V14.01,2013-03-31 09:12:00,
2013-03-31 05:17:00,34.2,24.4,29.89,SW,235,0.0,0.0,67,0.00,,CLR,0.00,VWS V14.01,2013-03-31 09:17:00,
2013-03-31 05:20:00,34.6,24.4,29.89,SW,235,0.0,1.0,66,0.00,,,0.00,VWS V14.01,2013-03-31 09:20:00,
2013-03-31 05:22:00,34.4,24.2,29.89,SW,235,0.0,1.0,66,0.00,,CLR,0.00,VWS V14.01,2013-03-31 09:22:00,
2013-03-31 05:27:00,34.6,24.4,29.89,SW,235,0.0,0.0,66,0.00,,CLR,0.00,VWS V14.01,2013-03-31 09:27:00,
2013-03-31 05:30:00,35.9,24.5,29.88,SW,235,0.0,1.0,63,0.00,,,0.00,VWS V14.01,2013-03-31 09:30:00,
2013-03-31 05:33:00,35.2,24.6,29.89,SW,235,0.0,1.0,65,0.00,,CLR,0.00,VWS V14.01,2013-03-31 09:33:00,
2013-03-31 05:38:00,36.0,24.6,29.88,SW,235,0.0,0.0,63,0.00,,CLR,0.00,VWS V14.01,2013-03-31 09:38:00,
2013-03-31 05:40:00,37.5,24.9,29.88,SW,234,1.0,1.0,60,0.00,,,0.00,VWS V14.01,2013-03-31 09:40:00,
2013-03-31 05:43:00,37.1,24.9,29.88,SW,235,0.0,1.0,61,0.00,,CLR,0.00,VWS V14.01,2013-03-31 09:43:00,
2013-03-31 05:48:00,37.5,24.9,29.88,SW,234,0.0,1.0,60,0.00,,CLR,0.00,VWS V14.01,2013-03-31 09:48:00,
2013-03-31 05:50:00,37.2,25.0,29.87,SW,234,0.0,2.0,61,0.00,,,0.00,VWS V14.01,2013-03-31 09:50:00,
2013-03-31 05:53:00,37.3,25.1,29.87,SW,235,2.0,2.0,61,0.00,,CLR,0.00,VWS V14.01,2013-03-31 09:53:00,
2013-03-31 05:58:00,37.2,25.0,29.87,SW,235,0.0,1.0,61,0.00,,CLR,0.00,VWS V14.01,2013-03-31 09:58:00,
2013-03-31 06:00:00,36.6,25.2,29.86,SW,235,0.0,1.0,63,0.00,,,0.00,VWS V14.01,2013-03-31 10:00:00,
2013-03-31 06:03:00,36.9,25.1,29.87,SW,234,0.0,1.0,62,0.00,,CLR,0.00,VWS V14.01,2013-03-31 10:03:00,
2013-03-31 06:08:00,36.6,25.2,29.86,SW,234,0.0,0.0,63,0.00,,CLR,0.00,VWS V14.01,2013-03-31 10:08:00,
2013-03-31 06:10:00,36.6,25.2,29.86,SW,234,3.0,3.0,63,0.00,,,0.00,VWS V14.01,2013-03-31 10:10:00,
2013-03-31 06:13:00,36.5,25.1,29.86,SW,235,0.0,1.0,63,0.00,,CLR,0.00,VWS V14.01,2013-03-31 10:13:00,
2013-03-31 06:18:00,36.7,25.3,29.86,SW,235,2.0,3.0,63,0.00,,CLR,0.00,VWS V14.01,2013-03-31 10:18:00,
2013-03-31 06:20:00,36.4,25.8,29.86,SW,235,0.0,3.0,65,0.00,,,0.00,VWS V14.01,2013-03-31 10:20:00,
2013-03-31 06:23:00,36.3,25.3,29.86,SW,235,0.0,3.0,64,0.00,,CLR,0.00,VWS V14.01,2013-03-31 10:23:00,
2013-03-31 06:28:00,36.5,25.5,29.86,SW,235,0.0,0.0,64,0.00,,CLR,0.00,VWS V14.01,2013-03-31 10:28:00,
2013-03-31 06:30:00,37.9,25.7,29.86,SE,130,2.0,2.0,61,0.00,,,0.00,VWS V14.01,2013-03-31 10:30:00,
2013-03-31 06:33:00,37.3,25.9,29.86,SW,222,0.0,2.0,63,0.00,,CLR,0.00,VWS V14.01,2013-03-31 10:33:00,
2013-03-31 06:38:00,38.0,25.8,29.86,SE,129,0.0,2.0,61,0.00,,CLR,0.00,VWS V14.01,2013-03-31 10:38:00,
2013-03-31 06:40:00,38.6,25.5,29.86,SW,226,0.0,2.0,59,0.00,,,0.00,VWS V14.01,2013-03-31 10:40:00,
2013-03-31 06:43:00,38.7,26.0,29.86,SW,226,0.0,2.0,60,0.00,,CLR,0.00,VWS V14.01,2013-03-31 10:43:00,
2013-03-31 06:48:00,38.6,25.5,29.86,SW,227,0.0,0.0,59,0.00,,CLR,0.00,VWS V14.01,2013-03-31 10:48:00,
2013-03-31 06:50:00,39.0,25.5,29.85,SW,227,0.0,0.0,58,0.00,,,0.00,VWS V14.01,2013-03-31 10:50:00,
2013-03-31 06:53:00,38.8,25.7,29.85,SW,226,0.0,0.0,59,0.00,,CLR,0.00,VWS V14.01,2013-03-31 10:53:00,
2013-03-31 06:58:00,39.1,25.6,29.85,SW,226,0.0,0.0,58,0.00,,CLR,0.00,VWS V14.01,2013-03-31 10:58:00,
2013-03-31 07:00:00,39.5,25.5,29.85,SW,226,0.0,1.0,57,0.00,,,0.00,VWS V14.01,2013-03-31 11:00:00,
2013-03-31 07:03:00,39.3,25.8,29.85,SW,227,0.0,1.0,58,0.00,,CLR,0.00,VWS V14.01,2013-03-31 11:03:00,
2013-03-31 07:08:00,39.5,25.5,29.85,SW,227,0.0,0.0,57,0.00,,CLR,0.00,VWS V14.01,2013-03-31 11:08:00,
2013-03-31 07:10:00,39.1,26.0,29.85,SW,227,0.0,1.0,59,0.00,,,0.00,VWS V14.01,2013-03-31 11:10:00,
2013-03-31 07:13:00,39.3,25.8,29.85,SW,227,0.0,1.0,58,0.00,,CLR,0.00,VWS V14.01,2013-03-31 11:13:00,
2013-03-31 07:18:00,39.1,26.0,29.85,SW,226,0.0,0.0,59,0.00,,CLR,0.00,VWS V14.01,2013-03-31 11:18:00,
2013-03-31 07:20:00,39.3,26.2,29.86,West,263,0.0,3.0,59,0.00,,,0.00,VWS V14.01,2013-03-31 11:20:00,
2013-03-31 07:23:00,39.3,26.2,29.86,SW,226,0.0,2.0,59,0.00,,CLR,0.00,VWS V14.01,2013-03-31 11:23:00,
2013-03-31 07:28:00,39.4,26.3,29.86,West,263,0.0,0.0,59,0.00,,CLR,0.00,VWS V14.01,2013-03-31 11:28:00,
2013-03-31 07:30:00,39.3,26.2,29.85,West,263,0.0,1.0,59,0.00,,,0.00,VWS V14.01,2013-03-31 11:30:00,
2013-03-31 07:33:00,39.4,25.9,29.86,West,263,0.0,1.0,58,0.00,,CLR,0.00,VWS V14.01,2013-03-31 11:33:00,
2013-03-31 07:38:00,39.3,26.2,29.85,West,263,0.0,0.0,59,0.00,,CLR,0.00,VWS V14.01,2013-03-31 11:38:00,
2013-03-31 07:40:00,39.7,26.1,29.85,West,263,0.0,1.0,58,0.00,,,0.00,VWS V14.01,2013-03-31 11:40:00,
2013-03-31 07:43:00,39.4,25.9,29.85,West,263,0.0,0.0,58,0.00,,CLR,0.00,VWS V14.01,2013-03-31 11:43:00,
2013-03-31 07:48:00,39.7,26.1,29.85,West,263,0.0,0.0,58,0.00,,CLR,0.00,VWS V14.01,2013-03-31 11:48:00,
2013-03-31 07:50:00,39.7,26.6,29.84,West,263,0.0,1.0,59,0.00,,,0.00,VWS V14.01,2013-03-31 11:50:00,
2013-03-31 07:53:00,39.8,26.7,29.84,West,263,0.0,0.0,59,0.00,,CLR,0.00,VWS V14.01,2013-03-31 11:53:00,
2013-03-31 07:58:00,39.6,26.9,29.84,West,263,0.0,0.0,60,0.00,,CLR,0.00,VWS V14.01,2013-03-31 11:58:00,
2013-03-31 08:00:00,36.5,26.6,29.85,West,263,0.0,2.0,67,0.00,,,0.00,VWS V14.01,2013-03-31 12:00:00,
2013-03-31 08:03:00,38.6,27.5,29.84,West,263,0.0,0.0,64,0.00,,FEW110,0.00,VWS V14.01,2013-03-31 12:03:00,
2013-03-31 08:08:00,36.1,26.9,29.85,West,263,0.0,0.0,69,0.00,,FEW110,0.00,VWS V14.01,2013-03-31 12:08:00,
2013-03-31 08:10:00,35.5,27.7,29.85,West,263,2.0,3.0,73,0.00,,,0.00,VWS V14.01,2013-03-31 12:10:00,
2013-03-31 08:13:00,35.1,26.7,29.85,West,263,0.0,3.0,71,0.00,,FEW110,0.00,VWS V14.01,2013-03-31 12:13:00,
2013-03-31 08:18:00,35.6,27.8,29.85,West,263,2.0,3.0,73,0.00,,FEW110,0.00,VWS V14.01,2013-03-31 12:18:00,
2013-03-31 08:20:00,35.8,27.7,29.86,WNW,296,3.0,4.0,72,0.00,,,0.00,VWS V14.01,2013-03-31 12:20:00,
2013-03-31 08:23:00,35.6,27.8,29.86,West,263,1.0,3.0,73,0.00,,FEW110,0.00,VWS V14.01,2013-03-31 12:23:00,
2013-03-31 08:28:00,36.1,28.0,29.86,WNW,296,2.0,4.0,72,0.00,,FEW110,0.00,VWS V14.01,2013-03-31 12:28:00,
2013-03-31 08:30:00,36.4,28.6,29.86,WSW,250,1.0,4.0,73,0.00,,,0.00,VWS V14.01,2013-03-31 12:30:00,
2013-03-31 08:33:00,36.3,28.5,29.86,WSW,250,0.0,4.0,73,0.00,,FEW110,0.00,VWS V14.01,2013-03-31 12:33:00,
2013-03-31 08:38:00,36.3,28.5,29.86,WSW,238,1.0,1.0,73,0.00,,FEW110,0.00,VWS V14.01,2013-03-31 12:38:00,
2013-03-31 08:40:00,36.6,28.8,29.86,West,265,0.0,3.0,73,0.00,,,0.00,VWS V14.01,2013-03-31 12:40:00,
2013-03-31 08:43:00,36.5,28.7,29.86,West,265,0.0,3.0,73,0.00,,FEW110,0.00,VWS V14.01,2013-03-31 12:43:00,
2013-03-31 08:48:00,36.8,29.0,29.86,West,265,0.0,1.0,73,0.00,,FEW110,0.00,VWS V14.01,2013-03-31 12:48:00,
2013-03-31 08:50:00,37.4,28.9,29.86,West,264,0.0,2.0,71,0.00,,,0.00,VWS V14.01,2013-03-31 12:50:00,
2013-03-31 08:53:00,37.0,28.8,29.86,West,265,1.0,2.0,72,0.00,,FEW110,0.00,VWS V14.01,2013-03-31 12:53:00,
2013-03-31 08:58:00,37.5,29.0,29.86,West,264,0.0,0.0,71,0.00,,FEW110,0.00,VWS V14.01,2013-03-31 12:58:00,
2013-03-31 09:00:00,38.8,29.5,29.85,West,264,0.0,2.0,69,0.00,,,0.00,VWS V14.01,2013-03-31 13:00:00,
2013-03-31 09:03:00,38.4,29.1,29.86,West,265,2.0,2.0,69,0.00,,OVC110,0.00,VWS V14.01,2013-03-31 13:03:00,
2013-03-31 09:08:00,38.9,29.6,29.85,West,265,0.0,0.0,69,0.00,,OVC110,0.00,VWS V14.01,2013-03-31 13:08:00,
2013-03-31 09:10:00,38.8,29.9,29.85,West,264,1.0,1.0,70,0.01,,,0.01,VWS V14.01,2013-03-31 13:10:00,
2013-03-31 09:13:00,38.8,29.5,29.85,West,265,1.0,1.0,69,0.00,,OVC110,0.00,VWS V14.01,2013-03-31 13:13:00,
2013-03-31 09:18:00,38.7,30.1,29.85,West,265,1.0,2.0,71,0.01,,OVC110,0.01,VWS V14.01,2013-03-31 13:18:00,
2013-03-31 09:20:00,38.1,31.2,29.86,West,265,1.0,2.0,76,0.01,,,0.01,VWS V14.01,2013-03-31 13:20:00,
2013-03-31 09:23:00,38.2,30.7,29.86,West,264,0.0,2.0,74,0.01,,OVC110,0.01,VWS V14.01,2013-03-31 13:23:00,
2013-03-31 09:28:00,38.2,31.6,29.86,West,264,0.0,2.0,77,0.01,,OVC110,0.01,VWS V14.01,2013-03-31 13:28:00,
2013-03-31 09:30:00,38.1,32.5,29.85,West,265,0.0,2.0,80,0.02,,,0.02,VWS V14.01,2013-03-31 13:30:00,
2013-03-31 09:33:00,38.0,32.1,29.86,West,264,0.0,2.0,79,0.01,,OVC110,0.01,VWS V14.01,2013-03-31 13:33:00,
2013-03-31 09:38:00,38.1,32.5,29.85,West,265,0.0,0.0,80,0.02,,OVC110,0.02,VWS V14.01,2013-03-31 13:38:00,
2013-03-31 09:40:00,38.2,33.2,29.85,West,265,0.0,1.0,82,0.02,,,0.02,VWS V14.01,2013-03-31 13:40:00,
2013-03-31 09:43:00,38.3,33.0,29.85,West,265,0.0,1.0,81,0.02,,OVC110,0.02,VWS V14.01,2013-03-31 13:43:00,
2013-03-31 09:48:00,37.9,32.9,29.85,West,264,0.0,1.0,82,0.02,,OVC110,0.02,VWS V14.01,2013-03-31 13:48:00,
2013-03-31 09:50:00,37.5,32.5,29.85,West,265,0.0,1.0,82,0.03,,,0.03,VWS V14.01,2013-03-31 13:50:00,
2013-03-31 09:54:00,37.6,32.6,29.85,West,265,0.0,1.0,82,0.03,,OVC110,0.03,VWS V14.01,2013-03-31 13:54:00,
2013-03-31 09:59:00,37.5,32.8,29.85,West,264,0.0,0.0,83,0.03,,OVC110,0.03,VWS V14.01,2013-03-31 13:59:00,
2013-03-31 10:00:00,37.5,33.1,29.84,West,265,0.0,0.0,84,0.04,,,0.04,VWS V14.01,2013-03-31 14:00:00,
2013-03-31 10:04:00,37.5,33.1,29.85,West,264,0.0,0.0,84,0.03,,OVC085,0.03,VWS V14.01,2013-03-31 14:04:00,
2013-03-31 10:09:00,37.5,33.1,29.84,West,264,0.0,1.0,84,0.04,,OVC085,0.04,VWS V14.01,2013-03-31 14:09:00,
2013-03-31 10:10:00,37.9,33.5,29.84,West,265,0.0,2.0,84,0.05,,,0.05,VWS V14.01,2013-03-31 14:10:00,
2013-03-31 10:14:00,37.7,33.3,29.84,West,265,0.0,2.0,84,0.04,,OVC085,0.04,VWS V14.01,2013-03-31 14:14:00,
2013-03-31 10:19:00,38.0,33.6,29.84,West,264,0.0,0.0,84,0.04,,OVC085,0.05,VWS V14.01,2013-03-31 14:19:00,
2013-03-31 10:20:00,38.3,34.2,29.83,West,265,0.0,0.0,85,0.05,,,0.06,VWS V14.01,2013-03-31 14:20:00,
2013-03-31 10:24:00,38.2,33.8,29.83,West,264,0.0,0.0,84,0.04,,OVC085,0.05,VWS V14.01,2013-03-31 14:24:00,
2013-03-31 10:29:00,38.3,34.2,29.83,West,265,0.0,2.0,85,0.05,,OVC085,0.06,VWS V14.01,2013-03-31 14:29:00,
2013-03-31 10:30:00,38.1,34.3,29.83,SE,128,0.0,4.0,86,0.06,,,0.07,VWS V14.01,2013-03-31 14:30:00,
2013-03-31 10:34:00,38.2,34.4,29.83,SE,132,1.0,4.0,86,0.05,,OVC085,0.06,VWS V14.01,2013-03-31 14:34:00,
2013-03-31 10:39:00,38.1,34.6,29.83,SE,128,2.0,2.0,87,0.05,,OVC085,0.07,VWS V14.01,2013-03-31 14:39:00,
2013-03-31 10:40:00,38.0,34.8,29.83,ESE,109,0.0,3.0,88,0.05,,,0.07,VWS V14.01,2013-03-31 14:40:00,
2013-03-31 10:44:00,38.0,34.8,29.83,ESE,120,0.0,3.0,88,0.05,,OVC085,0.07,VWS V14.01,2013-03-31 14:44:00,
2013-03-31 10:49:00,38.0,34.8,29.83,East,95,3.0,3.0,88,0.05,,OVC085,0.07,VWS V14.01,2013-03-31 14:49:00,
2013-03-31 10:50:00,38.2,35.2,29.82,East,95,0.0,3.0,89,0.06,,,0.08,VWS V14.01,2013-03-31 14:50:00,
2013-03-31 10:54:00,38.0,35.0,29.82,East,95,0.0,3.0,89,0.06,,OVC085,0.08,VWS V14.01,2013-03-31 14:54:00,
2013-03-31 10:59:00,38.1,35.2,29.82,East,95,0.0,1.0,89,0.05,,OVC085,0.08,VWS V14.01,2013-03-31 14:59:00,
2013-03-31 11:00:00,38.2,35.5,29.81,SE,144,0.0,3.0,90,0.05,,,0.08,VWS V14.01,2013-03-31 15:00:00,
2013-03-31 11:04:00,38.2,35.5,29.82,ESE,109,1.0,3.0,90,0.05,,RA,0.08,VWS V14.01,2013-03-31 15:04:00,
2013-03-31 11:09:00,38.2,35.5,29.81,SE,144,0.0,0.0,90,0.04,,RA,0.08,VWS V14.01,2013-03-31 15:09:00,
2013-03-31 11:10:00,38.5,35.8,29.81,SE,135,0.0,2.0,90,0.05,,,0.09,VWS V14.01,2013-03-31 15:10:00,
2013-03-31 11:14:00,38.4,35.7,29.81,SE,144,2.0,2.0,90,0.05,,RA,0.09,VWS V14.01,2013-03-31 15:14:00,
2013-03-31 11:19:00,38.5,36.1,29.81,SE,135,0.0,1.0,91,0.04,,RA,0.09,VWS V14.01,2013-03-31 15:19:00,
2013-03-31 11:20:00,38.9,36.5,29.81,SE,134,0.0,1.0,91,0.05,,,0.10,VWS V14.01,2013-03-31 15:20:00,
2013-03-31 11:24:00,38.8,36.4,29.81,SE,135,0.0,1.0,91,0.05,,RA,0.10,VWS V14.01,2013-03-31 15:24:00,
2013-03-31 11:29:00,39.0,36.6,29.81,SE,134,0.0,0.0,91,0.04,,RA,0.10,VWS V14.01,2013-03-31 15:29:00,
2013-03-31 11:30:00,39.2,36.8,29.80,SE,135,0.0,1.0,91,0.05,,,0.11,VWS V14.01,2013-03-31 15:30:00,
2013-03-31 11:34:00,39.1,36.7,29.81,SE,134,1.0,1.0,91,0.05,,RA,0.11,VWS V14.01,2013-03-31 15:34:00,
2013-03-31 11:39:00,39.2,36.8,29.80,SE,135,0.0,0.0,91,0.04,,RA,0.11,VWS V14.01,2013-03-31 15:39:00,
2013-03-31 11:40:00,39.3,36.9,29.80,SE,134,0.0,0.0,91,0.04,,,0.11,VWS V14.01,2013-03-31 15:40:00,
2013-03-31 11:44:00,39.3,36.9,29.80,SE,135,0.0,0.0,91,0.04,,RA,0.11,VWS V14.01,2013-03-31 15:44:00,
2013-03-31 11:49:00,39.4,37.0,29.80,SE,134,0.0,0.0,91,0.04,,RA,0.11,VWS V14.01,2013-03-31 15:49:00,
2013-03-31 11:50:00,39.3,36.9,29.78,NNE,32,0.0,4.0,91,0.04,,,0.11,VWS V14.01,2013-03-31 15:50:00,
2013-03-31 11:55:00,39.4,37.0,29.78,East,92,0.0,2.0,91,0.04,,RA,0.11,VWS V14.01,2013-03-31 15:55:00,
2013-03-31 12:00:00,39.3,37.2,29.78,NNE,32,0.0,0.0,92,0.03,,RA,0.11,VWS V14.01,2013-03-31 16:00:00,
2013-03-31 12:05:00,39.3,37.2,29.78,NNE,32,0.0,2.0,92,0.04,,RA,0.12,VWS V14.01,2013-03-31 16:05:00,
2013-03-31 12:10:00,39.4,37.3,29.77,NNE,22,0.0,2.0,92,0.04,,RA,0.12,VWS V14.01,2013-03-31 16:10:00,
2013-03-31 12:15:00,39.5,37.4,29.77,NNE,22,0.0,2.0,92,0.04,,RA,0.12,VWS V14.01,2013-03-31 16:15:00,
2013-03-31 12:20:00,39.8,38.0,29.77,SSE,150,1.0,2.0,93,0.03,,RA,0.12,VWS V14.01,2013-03-31 16:20:00,
2013-03-31 12:25:00,40.4,38.5,29.76,ESE,121,0.0,2.0,93,0.03,,RA,0.12,VWS V14.01,2013-03-31 16:25:00,
2013-03-31 12:30:00,40.8,38.9,29.76,ESE,121,2.0,3.0,93,0.02,,RA,0.12,VWS V14.01,2013-03-31 16:30:00,
2013-03-31 12:35:00,41.1,39.2,29.76,ESE,121,0.0,3.0,93,0.02,,RA,0.12,VWS V14.01,2013-03-31 16:35:00,
2013-03-31 12:40:00,41.5,39.6,29.75,ESE,121,0.0,2.0,93,0.01,,RA,0.12,VWS V14.01,2013-03-31 16:40:00,
2013-03-31 12:45:00,41.6,39.7,29.75,SSE,163,0.0,4.0,93,0.01,,RA,0.12,VWS V14.01,2013-03-31 16:45:00,
2013-03-31 12:50:00,41.6,39.7,29.75,SSE,167,1.0,5.0,93,0.01,,RA,0.12,VWS V14.01,2013-03-31 16:50:00,
2013-03-31 12:55:00,41.4,39.2,29.74,SSE,150,6.0,6.0,92,0.01,,RA,0.12,VWS V14.01,2013-03-31 16:55:00,
2013-03-31 13:00:00,41.3,39.2,29.74,South,169,0.0,4.0,92,0.01,,RA,0.12,VWS V14.01,2013-03-31 17:00:00,
2013-03-31 13:05:00,41.2,39.3,29.74,SE,143,4.0,6.0,93,0.01,,-RA,0.12,VWS V14.01,2013-03-31 17:05:00,
2013-03-31 13:10:00,41.1,39.2,29.74,SSE,163,0.0,3.0,93,0.00,,-RA,0.12,VWS V14.01,2013-03-31 17:10:00,
2013-03-31 13:15:00,41.1,39.2,29.74,SSW,195,1.0,9.0,93,0.00,,-RA,0.12,VWS V14.01,2013-03-31 17:15:00,
2013-03-31 13:20:00,41.2,39.3,29.74,South,184,1.0,2.0,93,0.00,,-RA,0.12,VWS V14.01,2013-03-31 17:20:00,
2013-03-31 13:25:00,41.3,39.4,29.74,SSW,196,3.0,5.0,93,0.00,,-RA,0.12,VWS V14.01,2013-03-31 17:25:00,
2013-03-31 13:30:00,41.1,39.2,29.74,SSE,163,4.0,4.0,93,0.00,,-RA,0.12,VWS V14.01,2013-03-31 17:30:00,
2013-03-31 13:35:00,41.1,39.2,29.74,SSE,160,3.0,6.0,93,0.01,,-RA,0.13,VWS V14.01,2013-03-31 17:35:00,
2013-03-31 13:40:00,41.1,39.2,29.73,SE,138,0.0,5.0,93,0.01,,-RA,0.13,VWS V14.01,2013-03-31 17:40:00,
2013-03-31 13:45:00,41.0,39.4,29.73,SE,136,0.0,5.0,94,0.01,,-RA,0.13,VWS V14.01,2013-03-31 17:45:00,
2013-03-31 13:50:00,41.1,39.5,29.73,SE,136,0.0,2.0,94,0.01,,-RA,0.13,VWS V14.01,2013-03-31 17:50:00,
2013-03-31 13:55:00,41.2,39.6,29.72,SE,136,0.0,2.0,94,0.01,,-RA,0.13,VWS V14.01,2013-03-31 17:55:00,
2013-03-31 14:00:00,41.3,39.7,29.72,SE,136,0.0,0.0,94,0.01,,-RA,0.13,VWS V14.01,2013-03-31 18:00:00,
2013-03-31 14:05:00,41.3,39.7,29.72,SE,136,0.0,1.0,94,0.01,,OVC024,0.13,VWS V14.01,2013-03-31 18:05:00,
2013-03-31 14:10:00,41.2,39.6,29.72,WSW,238,2.0,3.0,94,0.01,,OVC024,0.13,VWS V14.01,2013-03-31 18:10:00,
2013-03-31 14:15:00,41.1,39.5,29.72,WSW,238,2.0,4.0,94,0.01,,OVC024,0.13,VWS V14.01,2013-03-31 18:15:00,
2013-03-31 14:20:00,41.1,39.5,29.72,WSW,238,2.0,2.0,94,0.01,,OVC024,0.13,VWS V14.01,2013-03-31 18:20:00,
2013-03-31 14:25:00,41.0,39.4,29.71,WSW,238,1.0,3.0,94,0.01,,OVC024,0.13,VWS V14.01,2013-03-31 18:25:00,
2013-03-31 14:30:00,40.9,39.6,29.71,WSW,237,3.0,3.0,95,0.01,,OVC024,0.13,VWS V14.01,2013-03-31 18:30:00,
2013-03-31 14:35:00,40.9,39.6,29.71,WSW,238,1.0,4.0,95,0.02,,OVC024,0.14,VWS V14.01,2013-03-31 18:35:00,
2013-03-31 14:40:00,40.9,39.6,29.71,WSW,237,0.0,2.0,95,0.01,,OVC024,0.14,VWS V14.01,2013-03-31 18:40:00,
2013-03-31 14:45:00,41.0,39.7,29.71,WSW,238,0.0,2.0,95,0.01,,OVC024,0.14,VWS V14.01,2013-03-31 18:45:00,
2013-03-31 14:50:00,41.1,39.8,29.71,WSW,238,1.0,2.0,95,0.01,,OVC024,0.14,VWS V14.01,2013-03-31 18:50:00,
2013-03-31 14:55:00,40.9,39.6,29.71,WSW,237,3.0,3.0,95,0.01,,OVC024,0.14,VWS V14.01,2013-03-31 18:55:00,
2013-03-31 15:00:00,40.8,39.5,29.71,WSW,238,3.0,4.0,95,0.01,,OVC024,0.14,VWS V14.01,2013-03-31 19:00:00,
2013-03-31 15:05:00,40.8,39.5,29.71,WSW,237,1.0,4.0,95,0.01,,-RA,0.14,VWS V14.01,2013-03-31 19:05:00,
2013-03-31 15:10:00,40.8,39.5,29.70,WSW,237,1.0,2.0,95,0.01,,-RA,0.14,VWS V14.01,2013-03-31 19:10:00,
2013-03-31 15:16:00,41.0,39.7,29.70,WSW,238,0.0,3.0,95,0.01,,-RA,0.14,VWS V14.01,2013-03-31 19:16:00,
2013-03-31 15:20:00,41.1,39.8,29.69,WSW,237,1.0,3.0,95,0.01,,,0.14,VWS V14.01,2013-03-31 19:20:00,
2013-03-31 15:21:00,41.0,39.7,29.70,WSW,238,1.0,2.0,95,0.01,,-RA,0.14,VWS V14.01,2013-03-31 19:21:00,
2013-03-31 15:26:00,41.1,39.8,29.69,WSW,237,0.0,2.0,95,0.01,,-RA,0.14,VWS V14.01,2013-03-31 19:26:00,
2013-03-31 15:30:00,41.2,40.2,29.69,SW,218,1.0,4.0,96,0.01,,,0.14,VWS V14.01,2013-03-31 19:30:00,
2013-03-31 15:31:00,41.2,40.2,29.69,WSW,237,1.0,3.0,96,0.01,,-RA,0.14,VWS V14.01,2013-03-31 19:31:00,
2013-03-31 15:36:00,41.2,40.2,29.69,WSW,245,3.0,4.0,96,0.01,,-RA,0.14,VWS V14.01,2013-03-31 19:36:00,
2013-03-31 15:40:00,41.2,40.2,29.69,SW,228,2.0,4.0,96,0.00,,,0.14,VWS V14.01,2013-03-31 19:40:00,
2013-03-31 15:41:00,41.3,40.2,29.69,SW,229,0.0,4.0,96,0.00,,-RA,0.14,VWS V14.01,2013-03-31 19:41:00,
2013-03-31 15:46:00,41.2,40.2,29.69,SW,225,0.0,4.0,96,0.00,,-RA,0.14,VWS V14.01,2013-03-31 19:46:00,
2013-03-31 15:50:00,41.2,40.2,29.69,WSW,250,3.0,4.0,96,0.00,,,0.14,VWS V14.01,2013-03-31 19:50:00,
2013-03-31 15:51:00,41.2,40.2,29.69,WSW,244,1.0,4.0,96,0.00,,-RA,0.14,VWS V14.01,2013-03-31 19:51:00,
2013-03-31 15:56:00,41.1,40.0,29.69,WSW,242,4.0,4.0,96,0.00,,-RA,0.14,VWS V14.01,2013-03-31 19:56:00,
2013-03-31 16:00:00,41.2,40.2,29.69,WSW,244,1.0,6.0,96,0.00,,,0.14,VWS V14.01,2013-03-31 20:00:00,
2013-03-31 16:01:00,41.1,40.0,29.69,WSW,244,5.0,6.0,96,0.00,,-RA,0.14,VWS V14.01,2013-03-31 20:01:00,
2013-03-31 16:06:00,41.2,40.2,29.69,WSW,244,2.0,6.0,96,0.00,,-RA,0.14,VWS V14.01,2013-03-31 20:06:00,
2013-03-31 16:10:00,41.3,40.2,29.69,WSW,244,1.0,4.0,96,0.00,,,0.14,VWS V14.01,2013-03-31 20:10:00,
2013-03-31 16:11:00,41.3,40.2,29.69,WSW,244,1.0,3.0,96,0.00,,-RA,0.14,VWS V14.01,2013-03-31 20:11:00,
2013-03-31 16:16:00,41.3,40.2,29.69,WSW,244,0.0,4.0,96,0.00,,-RA,0.14,VWS V14.01,2013-03-31 20:16:00,
2013-03-31 16:20:00,41.3,40.2,29.68,WSW,244,2.0,5.0,96,0.01,,,0.15,VWS V14.01,2013-03-31 20:20:00,
2013-03-31 16:22:00,41.3,40.2,29.68,WSW,244,2.0,5.0,96,0.00,,-RA,0.14,VWS V14.01,2013-03-31 20:22:00,
2013-03-31 16:27:00,41.3,40.2,29.68,WSW,244,2.0,5.0,96,0.00,,-RA,0.14,VWS V14.01,2013-03-31 20:27:00,
2013-03-31 16:30:00,41.4,40.3,29.68,WSW,244,2.0,4.0,96,0.01,,,0.15,VWS V14.01,2013-03-31 20:30:00,
2013-03-31 16:32:00,41.3,40.2,29.68,WSW,244,1.0,3.0,96,0.01,,-RA,0.15,VWS V14.01,2013-03-31 20:32:00,
2013-03-31 16:37:00,41.4,40.3,29.68,WSW,244,2.0,4.0,96,0.01,,-RA,0.15,VWS V14.01,2013-03-31 20:37:00,
2013-03-31 16:40:00,41.7,40.7,29.68,SSW,213,1.0,7.0,96,0.01,,,0.15,VWS V14.01,2013-03-31 20:40:00,
2013-03-31 16:42:00,41.6,40.5,29.68,SSW,209,2.0,7.0,96,0.01,,-RA,0.15,VWS V14.01,2013-03-31 20:42:00,
2013-03-31 16:47:00,41.7,40.7,29.68,SSW,213,1.0,7.0,96,0.01,,-RA,0.15,VWS V14.01,2013-03-31 20:47:00,
2013-03-31 16:50:00,41.9,40.8,29.69,South,188,2.0,6.0,96,0.01,,,0.15,VWS V14.01,2013-03-31 20:50:00,
2013-03-31 16:52:00,41.9,40.8,29.69,WSW,252,2.0,6.0,96,0.01,,-RA,0.15,VWS V14.01,2013-03-31 20:52:00,
2013-03-31 16:57:00,41.9,40.8,29.69,South,188,2.0,6.0,96,0.01,,-RA,0.15,VWS V14.01,2013-03-31 20:57:00,
2013-03-31 17:00:00,42.2,41.4,29.69,SW,229,4.0,7.0,97,0.01,,,0.15,VWS V14.01,2013-03-31 21:00:00,
2013-03-31 17:02:00,42.1,41.0,29.69,SW,235,4.0,7.0,96,0.01,,-RA,0.15,VWS V14.01,2013-03-31 21:02:00,
2013-03-31 17:07:00,42.2,41.4,29.69,WSW,250,5.0,5.0,97,0.01,,-RA,0.15,VWS V14.01,2013-03-31 21:07:00,
2013-03-31 17:10:00,42.3,41.2,29.69,WSW,239,1.0,5.0,96,0.02,,,0.16,VWS V14.01,2013-03-31 21:10:00,
2013-03-31 17:12:00,42.2,41.1,29.69,SW,228,2.0,5.0,96,0.01,,-RA,0.15,VWS V14.01,2013-03-31 21:12:00,
2013-03-31 17:17:00,42.3,41.2,29.69,WSW,238,2.0,2.0,96,0.02,,-RA,0.16,VWS V14.01,2013-03-31 21:17:00,
2013-03-31 17:20:00,42.5,41.7,29.67,SW,232,5.0,11.0,97,0.02,,,0.16,VWS V14.01,2013-03-31 21:20:00,
2013-03-31 17:22:00,42.3,41.5,29.67,WSW,248,10.0,10.0,97,0.02,,-RA,0.16,VWS V14.01,2013-03-31 21:22:00,
2013-03-31 17:28:00,42.5,41.7,29.67,WSW,244,5.0,5.0,97,0.01,,-RA,0.16,VWS V14.01,2013-03-31 21:28:00,
2013-03-31 17:30:00,42.6,41.5,29.67,WSW,250,3.0,9.0,96,0.02,,,0.17,VWS V14.01,2013-03-31 21:30:00,
2013-03-31 17:33:00,42.5,41.7,29.67,WSW,242,4.0,9.0,97,0.01,,-RA,0.16,VWS V14.01,2013-03-31 21:33:00,
2013-03-31 17:38:00,42.6,41.5,29.67,West,276,4.0,8.0,96,0.02,,-RA,0.17,VWS V14.01,2013-03-31 21:38:00,
2013-03-31 17:40:00,42.8,41.7,29.67,WSW,240,4.0,10.0,96,0.02,,,0.17,VWS V14.01,2013-03-31 21:40:00,
2013-03-31 17:43:00,42.7,41.6,29.67,WSW,251,5.0,10.0,96,0.02,,-RA,0.17,VWS V14.01,2013-03-31 21:43:00,
2013-03-31 17:48:00,42.8,42.0,29.67,WSW,241,2.0,6.0,97,0.02,,-RA,0.17,VWS V14.01,2013-03-31 21:48:00,
2013-03-31 17:50:00,42.9,41.8,29.67,WSW,245,9.0,10.0,96,0.03,,,0.18,VWS V14.01,2013-03-31 21:50:00,
2013-03-31 17:53:00,42.8,42.0,29.67,WSW,258,4.0,9.0,97,0.02,,-RA,0.17,VWS V14.01,2013-03-31 21:53:00,
2013-03-31 17:58:00,42.9,41.8,29.67,WSW,255,6.0,9.0,96,0.03,,-RA,0.18,VWS V14.01,2013-03-31 21:58:00,
2013-03-31 18:00:00,42.9,41.8,29.67,WSW,252,7.0,12.0,96,0.05,,,0.20,VWS V14.01,2013-03-31 22:00:00,
2013-03-31 18:03:00,42.9,41.8,29.67,WSW,258,7.0,10.0,96,0.04,,-RA,0.19,VWS V14.01,2013-03-31 22:03:00,
2013-03-31 18:08:00,42.9,41.8,29.67,WSW,251,7.0,9.0,96,0.05,,-RA,0.20,VWS V14.01,2013-03-31 22:08:00,
2013-03-31 18:10:00,43.2,42.1,29.67,West,260,7.0,12.0,96,0.06,,,0.21,VWS V14.01,2013-03-31 22:10:00,
2013-03-31 18:13:00,42.9,41.8,29.67,West,264,10.0,12.0,96,0.05,,-RA,0.20,VWS V14.01,2013-03-31 22:13:00,
2013-03-31 18:18:00,43.2,42.1,29.67,West,274,5.0,9.0,96,0.05,,-RA,0.21,VWS V14.01,2013-03-31 22:18:00,
2013-03-31 18:20:00,43.1,42.0,29.67,West,259,7.0,11.0,96,0.05,,,0.21,VWS V14.01,2013-03-31 22:20:00,
2013-03-31 18:23:00,43.1,42.0,29.67,West,265,5.0,9.0,96,0.05,,-RA,0.21,VWS V14.01,2013-03-31 22:23:00,
2013-03-31 18:28:00,43.1,42.0,29.67,WSW,248,6.0,7.0,96,0.05,,-RA,0.21,VWS V14.01,2013-03-31 22:28:00,
2013-03-31 18:30:00,43.2,41.9,29.68,West,271,9.0,13.0,95,0.06,,,0.22,VWS V14.01,2013-03-31 22:30:00,
2013-03-31 18:33:00,43.1,42.0,29.67,West,268,6.0,11.0,96,0.06,,-RA,0.22,VWS V14.01,2013-03-31 22:33:00,
2013-03-31 18:38:00,43.2,41.9,29.68,West,265,11.0,12.0,95,0.05,,-RA,0.22,VWS V14.01,2013-03-31 22:38:00,
2013-03-31 18:40:00,43.1,41.8,29.68,SSW,206,10.0,12.0,95,0.06,,,0.23,VWS V14.01,2013-03-31 22:40:00,
2013-03-31 18:43:00,43.0,41.7,29.68,SW,234,10.0,12.0,95,0.06,,-RA,0.23,VWS V14.01,2013-03-31 22:43:00,
2013-03-31 18:48:00,43.2,41.9,29.68,SW,233,9.0,12.0,95,0.06,,-RA,0.23,VWS V14.01,2013-03-31 22:48:00,
2013-03-31 18:50:00,43.4,42.1,29.67,WSW,249,4.0,12.0,95,0.06,,,0.23,VWS V14.01,2013-03-31 22:50:00,
2013-03-31 18:53:00,43.4,42.1,29.67,SW,229,5.0,12.0,95,0.06,,-RA,0.23,VWS V14.01,2013-03-31 22:53:00,
2013-03-31 18:58:00,43.3,42.0,29.67,WSW,245,3.0,5.0,95,0.05,,-RA,0.23,VWS V14.01,2013-03-31 22:58:00,
2013-03-31 19:00:00,43.2,41.9,29.68,West,264,4.0,11.0,95,0.05,,,0.23,VWS V14.01,2013-03-31 23:00:00,
2013-03-31 19:03:00,43.3,42.0,29.67,SW,232,3.0,9.0,95,0.05,,-RA,0.23,VWS V14.01,2013-03-31 23:03:00,
2013-03-31 19:08:00,43.2,41.9,29.68,SSW,203,4.0,5.0,95,0.03,,-RA,0.23,VWS V14.01,2013-03-31 23:08:00,
2013-03-31 19:10:00,43.4,42.1,29.68,WSW,245,5.0,11.0,95,0.03,,,0.23,VWS V14.01,2013-03-31 23:10:00,
2013-03-31 19:13:00,43.3,42.0,29.68,West,265,8.0,11.0,95,0.03,,-RA,0.23,VWS V14.01,2013-03-31 23:13:00,
2013-03-31 19:18:00,43.4,42.1,29.68,WSW,252,2.0,6.0,95,0.02,,-RA,0.23,VWS V14.01,2013-03-31 23:18:00,
2013-03-31 19:20:00,43.5,41.9,29.69,SW,214,3.0,12.0,94,0.02,,,0.23,VWS V14.01,2013-03-31 23:20:00,
2013-03-31 19:23:00,43.4,41.8,29.69,WSW,256,5.0,12.0,94,0.02,,-RA,0.23,VWS V14.01,2013-03-31 23:23:00,
2013-03-31 19:28:00,43.5,41.9,29.69,WSW,249,7.0,13.0,94,0.02,,-RA,0.23,VWS V14.01,2013-03-31 23:28:00,
2013-03-31 19:30:00,43.3,41.7,29.69,West,261,16.0,17.0,94,0.02,,,0.23,VWS V14.01,2013-03-31 23:30:00,
2013-03-31 19:33:00,43.4,41.8,29.69,West,264,5.0,13.0,94,0.02,,-RA,0.23,VWS V14.01,2013-03-31 23:33:00,
2013-03-31 19:38:00,43.4,41.8,29.69,West,261,9.0,16.0,94,0.01,,-RA,0.23,VWS V14.01,2013-03-31 23:38:00,
2013-03-31 19:40:00,43.6,41.7,29.69,WSW,254,8.0,16.0,93,0.01,,,0.23,VWS V14.01,2013-03-31 23:40:00,
2013-03-31 19:43:00,43.4,41.8,29.69,West,259,11.0,16.0,94,0.01,,-RA,0.23,VWS V14.01,2013-03-31 23:43:00,
2013-03-31 19:48:00,43.6,41.7,29.69,SW,221,5.0,12.0,93,0.00,,-RA,0.23,VWS V14.01,2013-03-31 23:48:00,
2013-03-31 19:50:00,43.6,41.7,29.69,WSW,237,9.0,12.0,93,0.00,,,0.23,VWS V14.01,2013-03-31 23:50:00,
2013-03-31 19:53:00,43.6,41.7,29.69,WSW,254,7.0,12.0,93,0.00,,-RA,0.23,VWS V14.01,2013-03-31 23:53:00,
2013-03-31 19:58:00,43.6,41.7,29.69,WSW,249,8.0,11.0,93,0.00,,-RA,0.23,VWS V14.01,2013-03-31 23:58:00,
2013-03-31 20:00:00,43.5,41.6,29.69,SSW,211,2.0,12.0,93,0.00,,,0.23,VWS V14.01,2013-04-01 00:00:00,
2013-03-31 20:03:00,43.4,41.5,29.69,West,262,5.0,11.0,93,0.00,,-RA,0.23,VWS V14.01,2013-04-01 00:03:00,
2013-03-31 20:08:00,43.5,41.6,29.69,SSW,211,2.0,12.0,93,0.00,,-RA,0.23,VWS V14.01,2013-04-01 00:08:00,
2013-03-31 20:10:00,43.5,41.6,29.69,SW,224,7.0,15.0,93,0.00,,,0.23,VWS V14.01,2013-04-01 00:10:00,
2013-03-31 20:13:00,43.5,41.6,29.69,WSW,253,6.0,15.0,93,0.00,,-RA,0.23,VWS V14.01,2013-04-01 00:13:00,
2013-03-31 20:18:00,43.5,41.6,29.69,WSW,253,13.0,13.0,93,0.00,,-RA,0.23,VWS V14.01,2013-04-01 00:18:00,
2013-03-31 20:20:00,43.6,41.4,29.69,WSW,256,4.0,13.0,92,0.00,,,0.23,VWS V14.01,2013-04-01 00:20:00,
2013-03-31 20:23:00,43.6,41.7,29.69,SW,228,10.0,13.0,93,0.00,,-RA,0.23,VWS V14.01,2013-04-01 00:23:00,
2013-03-31 20:28:00,43.6,41.4,29.69,SW,225,3.0,5.0,92,0.00,,-RA,0.23,VWS V14.01,2013-04-01 00:28:00,
2013-03-31 20:30:00,43.5,41.3,29.69,SW,232,7.0,10.0,92,0.00,,,0.23,VWS V14.01,2013-04-01 00:30:00,
2013-03-31 20:33:00,43.5,41.3,29.69,SW,236,2.0,7.0,92,0.00,,-RA,0.23,VWS V14.01,2013-04-01 00:33:00,
2013-03-31 20:38:00,43.5,41.3,29.69,West,271,10.0,10.0,92,0.00,,-RA,0.23,VWS V14.01,2013-04-01 00:38:00,
2013-03-31 20:40:00,43.4,41.2,29.69,WSW,241,5.0,11.0,92,0.00,,,0.23,VWS V14.01,2013-04-01 00:40:00,
2013-03-31 20:43:00,43.5,41.3,29.69,WSW,240,2.0,11.0,92,0.00,,-RA,0.23,VWS V14.01,2013-04-01 00:43:00,
2013-03-31 20:48:00,43.5,41.3,29.69,SSW,206,2.0,6.0,92,0.00,,-RA,0.23,VWS V14.01,2013-04-01 00:48:00,
2013-03-31 20:50:00,43.2,41.0,29.70,SW,225,2.0,9.0,92,0.00,,,0.23,VWS V14.01,2013-04-01 00:50:00,
2013-03-31 20:53:00,43.4,41.2,29.70,WSW,244,2.0,9.0,92,0.00,,-RA,0.23,VWS V14.01,2013-04-01 00:53:00,
2013-03-31 20:58:00,43.1,40.9,29.70,West,277,7.0,7.0,92,0.00,,-RA,0.23,VWS V14.01,2013-04-01 00:58:00,
2013-03-31 21:00:00,43.4,41.2,29.70,WSW,245,8.0,11.0,92,0.00,,,0.23,VWS V14.01,2013-04-01 01:00:00,
2013-03-31 21:03:00,43.3,41.1,29.70,SW,236,6.0,11.0,92,0.00,,-RA,0.23,VWS V14.01,2013-04-01 01:03:00,
2013-03-31 21:08:00,43.4,41.2,29.70,WSW,244,9.0,9.0,92,0.00,,-RA,0.23,VWS V14.01,2013-04-01 01:08:00,
2013-03-31 21:10:00,43.6,41.4,29.70,West,263,12.0,14.0,92,0.00,,,0.23,VWS V14.01,2013-04-01 01:10:00,
2013-03-31 21:13:00,43.6,41.4,29.70,WSW,244,9.0,13.0,92,0.00,,-RA,0.23,VWS V14.01,2013-04-01 01:13:00,
2013-03-31 21:18:00,43.7,41.5,29.70,WSW,255,11.0,16.0,92,0.00,,-RA,0.23,VWS V14.01,2013-04-01 01:18:00,
2013-03-31 21:20:00,43.8,41.6,29.70,WSW,256,6.0,16.0,92,0.00,,,0.23,VWS V14.01,2013-04-01 01:20:00,
2013-03-31 21:23:00,43.7,41.5,29.70,West,259,8.0,16.0,92,0.00,,-RA,0.23,VWS V14.01,2013-04-01 01:23:00,
2013-03-31 21:28:00,43.8,41.3,29.70,WSW,239,11.0,12.0,91,0.00,,-RA,0.23,VWS V14.01,2013-04-01 01:28:00,
2013-03-31 21:30:00,43.9,41.5,29.71,WSW,246,11.0,17.0,91,0.00,,,0.23,VWS V14.01,2013-04-01 01:30:00,
2013-03-31 21:33:00,43.8,41.3,29.70,WSW,252,12.0,17.0,91,0.00,,-RA,0.23,VWS V14.01,2013-04-01 01:33:00,
2013-03-31 21:38:00,43.9,41.5,29.71,West,261,11.0,13.0,91,0.00,,-RA,0.23,VWS V14.01,2013-04-01 01:38:00,
2013-03-31 21:40:00,43.7,41.2,29.71,West,262,9.0,17.0,91,0.00,,,0.23,VWS V14.01,2013-04-01 01:40:00,
2013-03-31 21:43:00,43.8,41.3,29.71,West,274,11.0,17.0,91,0.00,,-RA,0.23,VWS V14.01,2013-04-01 01:43:00,
2013-03-31 21:48:00,43.8,41.3,29.71,West,265,11.0,15.0,91,0.00,,-RA,0.23,VWS V14.01,2013-04-01 01:48:00,
2013-03-31 21:50:00,43.9,41.2,29.71,West,261,5.0,20.0,90,0.00,,,0.23,VWS V14.01,2013-04-01 01:50:00,
2013-03-31 21:54:00,44.0,41.3,29.71,WSW,252,15.0,20.0,90,0.00,,-RA,0.23,VWS V14.01,2013-04-01 01:54:00,
2013-03-31 21:59:00,43.9,41.2,29.71,WSW,241,14.0,17.0,90,0.00,,-RA,0.23,VWS V14.01,2013-04-01 01:59:00,
2013-03-31 22:00:00,44.0,41.0,29.71,West,263,12.0,23.0,89,0.00,,,0.23,VWS V14.01,2013-04-01 02:00:00,
2013-03-31 22:04:00,44.0,41.3,29.71,West,264,5.0,23.0,90,0.00,,OVC015,0.23,VWS V14.01,2013-04-01 02:04:00,
2013-03-31 22:09:00,44.1,41.4,29.71,West,263,6.0,13.0,90,0.00,,OVC015,0.23,VWS V14.01,2013-04-01 02:09:00,
2013-03-31 22:10:00,43.8,40.8,29.71,WSW,240,10.0,17.0,89,0.00,,,0.23,VWS V14.01,2013-04-01 02:10:00,
2013-03-31 22:14:00,43.9,40.9,29.71,WSW,258,11.0,17.0,89,0.00,,OVC015,0.23,VWS V14.01,2013-04-01 02:14:00,
2013-03-31 22:19:00,43.8,40.8,29.71,West,261,9.0,12.0,89,0.00,,OVC015,0.23,VWS V14.01,2013-04-01 02:19:00,
2013-03-31 22:20:00,43.6,40.6,29.71,WSW,252,7.0,20.0,89,0.00,,,0.23,VWS V14.01,2013-04-01 02:20:00,
2013-03-31 22:24:00,43.8,40.8,29.71,West,273,15.0,20.0,89,0.00,,OVC015,0.23,VWS V14.01,2013-04-01 02:24:00,
2013-03-31 22:29:00,43.6,40.6,29.71,WSW,239,11.0,19.0,89,0.00,,OVC015,0.23,VWS V14.01,2013-04-01 02:29:00,
2013-03-31 22:30:00,43.6,40.3,29.71,WSW,254,10.0,20.0,88,0.00,,,0.23,VWS V14.01,2013-04-01 02:30:00,
2013-03-31 22:34:00,43.7,40.4,29.71,West,261,11.0,19.0,88,0.00,,OVC015,0.23,VWS V14.01,2013-04-01 02:34:00,
2013-03-31 22:39:00,43.5,40.2,29.71,WSW,237,5.0,12.0,88,0.00,,OVC015,0.23,VWS V14.01,2013-04-01 02:39:00,
2013-03-31 22:40:00,43.4,40.4,29.71,SW,234,8.0,18.0,89,0.00,,,0.23,VWS V14.01,2013-04-01 02:40:00,
2013-03-31 22:44:00,43.5,40.5,29.71,West,268,9.0,18.0,89,0.00,,OVC015,0.23,VWS V14.01,2013-04-01 02:44:00,
2013-03-31 22:49:00,43.4,40.4,29.71,WSW,255,5.0,8.0,89,0.00,,OVC015,0.23,VWS V14.01,2013-04-01 02:49:00,
2013-03-31 22:50:00,43.3,40.0,29.70,West,261,7.0,21.0,88,0.00,,,0.23,VWS V14.01,2013-04-01 02:50:00,
2013-03-31 22:54:00,43.5,40.2,29.70,West,263,12.0,21.0,88,0.00,,OVC015,0.23,VWS V14.01,2013-04-01 02:54:00,
2013-03-31 22:59:00,43.2,39.9,29.70,West,267,10.0,10.0,88,0.00,,OVC015,0.23,VWS V14.01,2013-04-01 02:59:00,
2013-03-31 23:00:00,43.0,40.0,29.70,WSW,257,9.0,16.0,89,0.00,,,0.23,VWS V14.01,2013-04-01 03:00:00,
2013-03-31 23:04:00,43.0,40.0,29.70,SW,223,16.0,16.0,89,0.00,,OVC015,0.23,VWS V14.01,2013-04-01 03:04:00,
2013-03-31 23:09:00,43.1,40.1,29.70,SSW,211,11.0,16.0,89,0.00,,OVC015,0.23,VWS V14.01,2013-04-01 03:09:00,
2013-03-31 23:10:00,43.1,40.1,29.70,WSW,257,11.0,19.0,89,0.00,,,0.23,VWS V14.01,2013-04-01 03:10:00,
2013-03-31 23:14:00,42.9,39.9,29.70,WNW,294,15.0,19.0,89,0.00,,OVC015,0.23,VWS V14.01,2013-04-01 03:14:00,
2013-03-31 23:19:00,43.2,40.2,29.70,West,265,9.0,14.0,89,0.00,,OVC015,0.23,VWS V14.01,2013-04-01 03:19:00,
2013-03-31 23:20:00,43.3,40.3,29.69,SSW,213,7.0,19.0,89,0.00,,,0.23,VWS V14.01,2013-04-01 03:20:00,
2013-03-31 23:24:00,43.3,40.3,29.69,West,261,10.0,14.0,89,0.00,,OVC015,0.23,VWS V14.01,2013-04-01 03:24:00,
2013-03-31 23:29:00,43.1,40.1,29.69,WSW,248,11.0,12.0,89,0.00,,OVC015,0.23,VWS V14.01,2013-04-01 03:29:00,
2013-03-31 23:30:00,43.0,40.0,29.67,SSW,211,4.0,15.0,89,0.00,,,0.23,VWS V14.01,2013-04-01 03:30:00,
2013-03-31 23:34:00,42.9,39.9,29.69,WSW,244,11.0,15.0,89,0.00,,OVC015,0.23,VWS V14.01,2013-04-01 03:34:00,
2013-03-31 23:39:00,43.0,40.3,29.67,WSW,240,4.0,10.0,90,0.00,,OVC015,0.23,VWS V14.01,2013-04-01 03:39:00,
2013-03-31 23:40:00,43.1,40.4,29.67,WSW,238,5.0,12.0,90,0.00,,,0.23,VWS V14.01,2013-04-01 03:40:00,
2013-03-31 23:44:00,43.0,40.3,29.67,SW,216,7.0,12.0,90,0.00,,OVC015,0.23,VWS V14.01,2013-04-01 03:44:00,
2013-03-31 23:49:00,43.0,40.3,29.67,West,265,4.0,6.0,90,0.00,,OVC015,0.23,VWS V14.01,2013-04-01 03:49:00,
2013-03-31 23:50:00,43.1,40.4,29.68,West,261,7.0,17.0,90,0.00,,,0.23,VWS V14.01,2013-04-01 03:50:00,
2013-03-31 23:54:00,42.9,40.2,29.68,West,265,11.0,17.0,90,0.00,,OVC015,0.23,VWS V14.01,2013-04-01 03:54:00,
2013-03-31 23:59:00,42.9,40.2,29.68,WSW,256,10.0,11.0,90,0.00,,OVC015,0.23,VWS V14.01,2013-04-01 03:59:00,